CNS weather

Cairns International Airport
Cairns, Queensland, Australia

Public forecast

Using degrees Celsius for public forecast. Weather courtesy of forecast.io.

METAR (pilot weather report)

Retrieved 2018/02/25 19:00 UTC (30 minutes ago):

YBCS 251900Z 26007KT 9999 FEW025 BKN250 25/21 Q1006 NOSIG

TAF (pilot weather forecast)

Retrieved 2018/02/25 18:00 UTC (1 hour ago):

TAF YBCS 251703Z 2518/2618 27005KT 9999 SCT015 BKN050 FM260000 01013KT 9999 SCT025 SCT050 FM260800 27005KT 9999 SCT015 BKN050 PROB30 TEMPO 2603/2606 VRB15G35KT 1000 TSRA FEW005 BKN015 SCT025CB